createdAt,value
2023-01-28T00:00:53.425Z,101025.59
2023-01-28T00:02:25.211Z,101018.50
2023-01-28T00:03:56.976Z,101023.81
2023-01-28T00:05:30.052Z,101022.06
2023-01-28T00:07:01.869Z,101024.72
2023-01-28T00:08:36.673Z,101032.69
2023-01-28T00:10:08.826Z,101027.38
2023-01-28T00:11:40.595Z,101029.97
2023-01-28T00:13:16.464Z,101025.53
2023-01-28T00:14:48.199Z,101023.81
2023-01-28T00:16:20.484Z,101022.94
2023-01-28T00:17:52.692Z,101028.19
2023-01-28T00:19:24.728Z,101030.84
2023-01-28T00:20:58.900Z,101030.84
2023-01-28T00:22:32.064Z,101029.16
2023-01-28T00:24:04.187Z,101033.53
2023-01-28T00:25:35.865Z,101036.19
2023-01-28T00:27:07.926Z,101038.00
2023-01-28T00:28:42.078Z,101024.81
2023-01-28T00:30:14.122Z,101025.66
2023-01-28T00:31:45.876Z,101036.28
2023-01-28T00:33:17.641Z,101031.91
2023-01-28T00:34:51.223Z,101033.66
2023-01-28T00:36:24.801Z,101035.41
2023-01-28T00:37:56.508Z,101035.41
2023-01-28T00:39:28.228Z,101029.25
2023-01-28T00:41:13.381Z,101031.00
2023-01-28T00:42:45.080Z,101029.25
2023-01-28T00:44:16.917Z,101033.66
2023-01-28T00:45:50.214Z,101031.00
2023-01-28T00:47:22.170Z,101032.75
2023-01-28T00:48:54.118Z,101031.91
2023-01-28T00:50:25.918Z,101031.84
2023-01-28T00:51:58.033Z,101037.16
2023-01-28T00:53:30.625Z,101033.63
2023-01-28T00:55:02.657Z,101040.66
2023-01-28T00:56:34.694Z,101037.16
2023-01-28T00:58:06.391Z,101037.16
2023-01-28T00:59:38.141Z,101036.22
2023-01-28T01:01:15.433Z,101045.97
2023-01-28T01:02:48.138Z,101041.50
2023-01-28T01:04:26.799Z,101031.75
2023-01-28T01:05:58.710Z,101036.13
2023-01-28T01:07:43.927Z,101036.13
2023-01-28T01:09:15.675Z,101038.78
2023-01-28T01:10:47.407Z,101033.50
2023-01-28T01:12:19.667Z,101036.13
2023-01-28T01:13:53.087Z,101034.41
2023-01-28T01:15:24.989Z,101039.66
2023-01-28T01:16:56.705Z,101037.06
2023-01-28T01:18:28.455Z,101040.56
2023-01-28T01:20:00.218Z,101041.44
2023-01-28T01:21:32.083Z,101045.88
2023-01-28T01:23:03.863Z,101041.44
2023-01-28T01:24:35.594Z,101038.84
2023-01-28T01:26:07.908Z,101039.72
2023-01-28T01:27:40.040Z,101040.56
2023-01-28T01:29:11.758Z,101047.66
2023-01-28T01:30:43.689Z,101038.00
2023-01-28T01:32:15.514Z,101046.84
2023-01-28T01:33:49.730Z,101048.63
2023-01-28T01:35:21.497Z,101041.53
2023-01-28T01:36:53.263Z,101052.13
2023-01-28T01:38:25.457Z,101049.47
2023-01-28T01:39:57.383Z,101042.44
2023-01-28T01:41:31.910Z,101047.81
2023-01-28T01:43:16.899Z,101047.84
2023-01-28T01:44:59.658Z,101041.59
2023-01-28T01:46:48.176Z,101045.16
2023-01-28T01:48:26.269Z,101045.16
2023-01-28T01:50:00.555Z,101039.78
2023-01-28T01:51:34.692Z,101042.44
2023-01-28T01:53:19.139Z,101045.19
2023-01-28T01:54:57.232Z,101045.16
2023-01-28T01:56:35.818Z,101051.34
2023-01-28T01:58:13.556Z,101057.50
2023-01-28T01:59:46.281Z,101053.06
2023-01-28T02:01:22.940Z,101047.75
2023-01-28T02:02:54.870Z,101051.25
2023-01-28T02:04:31.056Z,101048.59
2023-01-28T02:06:03.766Z,101046.75
2023-01-28T02:07:36.845Z,101046.75
2023-01-28T02:09:26.641Z,101041.53
2023-01-28T02:11:05.774Z,101045.03
2023-01-28T02:12:40.861Z,101041.44
2023-01-28T02:14:19.492Z,101044.09
2023-01-28T02:16:00.829Z,101045.88
2023-01-28T02:17:33.162Z,101041.44
2023-01-28T02:19:06.405Z,101042.31
2023-01-28T02:20:53.880Z,101041.53
2023-01-28T02:23:04.591Z,101037.16
2023-01-28T02:24:59.954Z,101046.75
2023-01-28T02:26:31.679Z,101045.88
2023-01-28T02:28:30.258Z,101052.22
2023-01-28T02:30:16.448Z,101053.13
2023-01-28T02:31:55.587Z,101046.06
2023-01-28T02:33:45.011Z,101054.94
2023-01-28T02:35:31.949Z,101060.25
2023-01-28T02:37:50.307Z,101053.28
2023-01-28T02:39:27.372Z,101052.34
2023-01-28T02:41:15.659Z,101062.13
2023-01-28T02:42:47.438Z,101066.47
2023-01-28T02:44:19.259Z,101054.16
2023-01-28T02:46:09.624Z,101055.06
2023-01-28T02:47:59.230Z,101050.72
2023-01-28T02:49:41.561Z,101054.31
2023-01-28T02:51:24.826Z,101058.75
2023-01-28T02:53:26.879Z,101056.03
2023-01-28T02:55:09.796Z,101070.22
2023-01-28T02:56:56.819Z,101072.94
2023-01-28T02:58:38.813Z,101067.63
2023-01-28T03:00:18.533Z,101070.28
2023-01-28T03:01:58.510Z,101076.44
2023-01-28T03:03:41.531Z,101072.09
2023-01-28T03:05:22.538Z,101070.34
2023-01-28T03:07:00.611Z,101073.88
2023-01-28T03:09:11.658Z,101069.59
2023-01-28T03:10:43.433Z,101067.78
2023-01-28T03:12:44.779Z,101071.41
2023-01-28T03:14:37.980Z,101073.19
2023-01-28T03:16:29.169Z,101067.00
2023-01-28T03:18:31.419Z,101067.19
2023-01-28T03:24:51.659Z,101070.91
2023-01-28T03:26:46.617Z,101070.91
2023-01-28T03:28:39.500Z,101072.78
2023-01-28T03:30:37.716Z,101073.75
2023-01-28T03:32:33.213Z,101077.28
2023-01-28T03:34:24.855Z,101072.91
2023-01-28T03:36:15.299Z,101074.72
2023-01-28T03:37:47.307Z,101080.09
2023-01-28T03:39:27.287Z,101081.94
2023-01-28T03:41:01.383Z,101086.38
2023-01-28T03:42:35.085Z,101080.28
2023-01-28T03:44:35.951Z,101079.44
2023-01-28T03:46:07.626Z,101080.41
2023-01-28T03:47:40.797Z,101086.69
2023-01-28T03:49:18.069Z,101078.84
2023-01-28T03:50:50.120Z,101089.56
2023-01-28T03:52:24.384Z,101087.06
2023-01-28T03:53:56.830Z,101092.44
2023-01-28T03:55:28.491Z,101095.28
2023-01-28T03:57:00.157Z,101103.34
2023-01-28T03:59:01.224Z,101101.72
2023-01-28T04:00:33.753Z,101100.16
2023-01-28T04:02:06.513Z,101110.84
2023-01-28T04:03:38.386Z,101109.19
2023-01-28T04:05:19.837Z,101114.56
2023-01-28T04:06:55.326Z,101113.78
2023-01-28T04:08:29.969Z,101113.00
2023-01-28T04:10:31.351Z,101116.59
2023-01-28T04:12:11.123Z,101123.69
2023-01-28T04:13:49.293Z,101117.59
2023-01-28T04:15:22.972Z,101118.63
2023-01-28T04:16:57.915Z,101119.53
2023-01-28T04:18:30.623Z,101121.38
2023-01-28T04:20:03.088Z,101118.78
2023-01-28T04:21:36.047Z,101111.81
2023-01-28T04:23:09.024Z,101112.69
2023-01-28T04:24:40.675Z,101118.91
2023-01-28T04:26:12.325Z,101121.59
2023-01-28T04:27:43.999Z,101118.09
2023-01-28T04:29:21.257Z,101116.38
2023-01-28T04:30:55.218Z,101122.56
2023-01-28T04:32:40.044Z,101125.22
2023-01-28T04:34:22.838Z,101129.59
2023-01-28T04:36:06.621Z,101124.28
2023-01-28T04:37:58.564Z,101130.44
2023-01-28T04:39:53.324Z,101126.03
2023-01-28T04:41:26.942Z,101128.66
2023-01-28T04:42:59.809Z,101130.41
2023-01-28T04:44:41.560Z,101124.25
2023-01-28T04:46:40.895Z,101125.16
2023-01-28T04:48:32.670Z,101126.84
2023-01-28T04:50:19.974Z,101127.75
2023-01-28T04:52:09.607Z,101120.69
2023-01-28T04:53:58.301Z,101124.22
2023-01-28T04:55:33.804Z,101123.34
2023-01-28T04:57:05.921Z,101135.69
2023-01-28T04:58:40.021Z,101140.13
2023-01-28T05:00:17.601Z,101143.63
2023-01-28T05:01:49.743Z,101146.28
2023-01-28T05:03:21.527Z,101154.19
2023-01-28T05:04:53.233Z,101155.06
2023-01-28T05:06:39.751Z,101156.84
2023-01-28T05:08:18.879Z,101154.22
2023-01-28T05:09:51.556Z,101155.13
2023-01-28T05:11:24.003Z,101167.53
2023-01-28T05:12:59.834Z,101163.97
2023-01-28T05:14:31.558Z,101158.72
2023-01-28T05:16:11.394Z,101163.13
2023-01-28T05:17:44.205Z,101167.53
2023-01-28T05:19:17.316Z,101163.13
2023-01-28T05:20:51.119Z,101157.78
2023-01-28T05:22:23.130Z,101167.47
2023-01-28T05:24:13.231Z,101167.44
2023-01-28T05:25:45.924Z,101172.78
2023-01-28T05:27:17.796Z,101178.06
2023-01-28T05:28:49.584Z,101170.09
2023-01-28T05:30:22.231Z,101176.28
2023-01-28T05:31:53.987Z,101174.50
2023-01-28T05:33:25.798Z,101175.41
2023-01-28T05:34:57.686Z,101176.28
2023-01-28T05:36:30.386Z,101178.06
2023-01-28T05:38:04.117Z,101174.56
2023-01-28T05:39:35.920Z,101180.72
2023-01-28T05:41:07.724Z,101181.63
2023-01-28T05:42:40.867Z,101190.47
2023-01-28T05:44:26.862Z,101197.56
2023-01-28T05:46:04.540Z,101198.47
2023-01-28T05:47:55.986Z,101202.84
2023-01-28T05:49:53.973Z,101197.56
2023-01-28T05:51:39.450Z,101197.56
2023-01-28T05:53:11.935Z,101197.66
2023-01-28T05:54:47.116Z,101199.38
2023-01-28T05:56:18.866Z,101198.47
2023-01-28T05:57:51.155Z,101199.38
2023-01-28T05:59:26.014Z,101202.88
2023-01-28T06:01:00.146Z,101207.28
2023-01-28T06:02:40.160Z,101205.53
2023-01-28T06:04:12.122Z,101206.44
2023-01-28T06:05:44.641Z,101206.41
2023-01-28T06:07:20.262Z,101205.53
2023-01-28T06:08:52.837Z,101211.72
2023-01-28T06:10:30.669Z,101217.03
2023-01-28T06:12:02.537Z,101218.81
2023-01-28T06:13:41.718Z,101221.44
2023-01-28T06:15:30.991Z,101227.59
2023-01-28T06:17:23.252Z,101224.97
2023-01-28T06:19:07.593Z,101227.59
2023-01-28T06:20:39.497Z,101233.75
2023-01-28T06:22:11.535Z,101234.66
2023-01-28T06:23:43.294Z,101235.53
2023-01-28T06:25:15.128Z,101234.66
2023-01-28T06:26:47.338Z,101244.34
2023-01-28T06:28:19.540Z,101246.16
2023-01-28T06:29:51.273Z,101251.44
2023-01-28T06:31:23.023Z,101245.28
2023-01-28T06:32:55.954Z,101248.81
2023-01-28T06:34:27.694Z,101255.91
2023-01-28T06:36:03.151Z,101254.16
2023-01-28T06:37:35.174Z,101253.28
2023-01-28T06:39:06.992Z,101250.69
2023-01-28T06:40:39.003Z,101255.97
2023-01-28T06:42:10.734Z,101259.47
2023-01-28T06:43:42.565Z,101263.03
2023-01-28T06:45:14.411Z,101266.59
2023-01-28T06:46:46.908Z,101271.88
2023-01-28T06:48:18.613Z,101267.47
2023-01-28T06:49:50.328Z,101268.38
2023-01-28T06:51:22.076Z,101268.38
2023-01-28T06:52:53.836Z,101265.72
2023-01-28T06:54:25.575Z,101277.22
2023-01-28T06:55:57.338Z,101281.63
2023-01-28T06:57:29.072Z,101276.38
2023-01-28T06:59:00.886Z,101280.81
2023-01-28T07:00:32.629Z,101279.94
2023-01-28T07:02:04.451Z,101278.16
2023-01-28T07:03:37.175Z,101279.06
2023-01-28T07:05:09.309Z,101279.94
2023-01-28T07:06:41.254Z,101282.63
2023-01-28T07:08:13.053Z,101285.28
2023-01-28T07:09:44.879Z,101278.25
2023-01-28T07:11:17.109Z,101287.94
2023-01-28T07:12:48.913Z,101285.28
2023-01-28T07:14:20.671Z,101285.28
2023-01-28T07:15:52.612Z,101282.69
2023-01-28T07:17:24.401Z,101287.09
2023-01-28T07:18:56.157Z,101284.47
2023-01-28T07:20:28.058Z,101282.69
2023-01-28T07:22:01.031Z,101287.09
2023-01-28T07:23:32.779Z,101295.03
2023-01-28T07:25:04.783Z,101287.97
2023-01-28T07:26:36.523Z,101290.59
2023-01-28T07:28:08.545Z,101295.00
2023-01-28T07:29:40.285Z,101296.75
2023-01-28T07:31:12.154Z,101296.75
2023-01-28T07:32:44.324Z,101294.06
2023-01-28T07:34:16.024Z,101293.16
2023-01-28T07:35:48.762Z,101291.38
2023-01-28T07:37:20.998Z,101296.66
2023-01-28T07:38:52.723Z,101295.72
2023-01-28T07:40:25.670Z,101301.00
2023-01-28T07:41:57.423Z,101300.16
2023-01-28T07:43:37.201Z,101300.09
2023-01-28T07:45:09.214Z,101289.53
2023-01-28T07:46:40.943Z,101286.88
2023-01-28T07:48:14.050Z,101292.13
2023-01-28T07:49:45.770Z,101293.84
2023-01-28T07:51:17.738Z,101289.44
2023-01-28T07:52:49.488Z,101297.31
2023-01-28T07:54:21.223Z,101292.03
2023-01-28T07:55:53.091Z,101296.41
2023-01-28T07:57:24.914Z,101295.53
2023-01-28T07:58:56.651Z,101287.59
2023-01-28T08:00:30.858Z,101293.72
2023-01-28T08:02:02.682Z,101292.84
2023-01-28T08:03:34.528Z,101289.28
2023-01-28T08:05:06.919Z,101288.38
2023-01-28T08:06:38.705Z,101294.50
2023-01-28T08:08:11.172Z,101294.50
2023-01-28T08:09:42.870Z,101297.94
2023-01-28T08:11:14.827Z,101297.03
2023-01-28T08:12:55.038Z,101300.53
2023-01-28T08:14:26.775Z,101286.38
2023-01-28T08:15:59.632Z,101294.22
2023-01-28T08:17:31.776Z,101299.44
2023-01-28T08:19:03.836Z,101302.91
2023-01-28T08:20:36.372Z,101305.50
2023-01-28T08:22:08.138Z,101304.53
2023-01-28T08:23:39.859Z,101301.84
2023-01-28T08:25:11.630Z,101298.22
2023-01-28T08:26:43.628Z,101286.72
2023-01-28T08:28:16.877Z,101291.97
2023-01-28T08:29:48.840Z,101292.78
2023-01-28T08:31:20.751Z,101295.38
2023-01-28T08:32:56.041Z,101298.81
2023-01-28T08:34:27.777Z,101297.84
2023-01-28T08:36:03.473Z,101305.75
2023-01-28T08:37:35.224Z,101302.13
2023-01-28T08:39:06.953Z,101303.84
2023-01-28T08:40:38.970Z,101313.47
2023-01-28T08:42:11.705Z,101304.66
2023-01-28T08:43:43.430Z,101313.44
2023-01-28T08:45:15.365Z,101311.63
2023-01-28T08:46:47.101Z,101311.53
2023-01-28T08:48:19.891Z,101307.97
2023-01-28T08:49:51.610Z,101306.13
2023-01-28T08:51:23.526Z,101317.56
2023-01-28T08:53:01.269Z,101307.84
2023-01-28T08:54:33.504Z,101313.06
2023-01-28T08:56:05.649Z,101317.50
2023-01-28T08:57:37.479Z,101314.81
2023-01-28T08:59:09.195Z,101316.56
2023-01-28T09:00:41.960Z,101320.09
2023-01-28T09:02:30.232Z,101325.34
2023-01-28T09:04:03.069Z,101321.78
2023-01-28T09:05:35.952Z,101318.22
2023-01-28T09:07:07.774Z,101326.16
2023-01-28T09:08:39.479Z,101323.50
2023-01-28T09:10:11.719Z,101319.94
2023-01-28T09:11:44.179Z,101334.06
2023-01-28T09:13:16.263Z,101340.19
2023-01-28T09:14:47.999Z,101341.00
2023-01-28T09:16:19.789Z,101329.53
2023-01-28T09:17:58.411Z,101331.28
2023-01-28T09:19:30.177Z,101334.78
2023-01-28T09:21:05.725Z,101337.38
2023-01-28T09:22:37.474Z,101342.69
2023-01-28T09:24:12.247Z,101340.88
2023-01-28T09:25:44.110Z,101334.72
2023-01-28T09:27:16.283Z,101332.91
2023-01-28T09:28:48.453Z,101344.38
2023-01-28T09:30:20.312Z,101340.88
2023-01-28T09:31:52.166Z,101336.47
2023-01-28T09:33:24.061Z,101342.69
2023-01-28T09:34:55.787Z,101343.53
2023-01-28T09:36:27.495Z,101339.09
2023-01-28T09:38:00.290Z,101334.69
2023-01-28T09:39:32.291Z,101337.31
2023-01-28T09:41:23.475Z,101340.03
2023-01-28T09:43:37.297Z,101332.16
2023-01-28T09:45:25.156Z,101342.72
2023-01-28T09:47:15.136Z,101333.06
2023-01-28T09:48:52.864Z,101342.78
2023-01-28T09:50:35.505Z,101341.94
2023-01-28T09:52:14.119Z,101341.13
2023-01-28T09:53:52.340Z,101341.13
2023-01-28T09:55:37.732Z,101339.44
2023-01-28T09:57:19.647Z,101335.09
2023-01-28T09:58:51.993Z,101345.69
2023-01-28T10:00:42.172Z,101344.00
2023-01-28T10:02:26.205Z,101344.00
2023-01-28T10:04:17.506Z,101350.22
2023-01-28T10:06:08.443Z,101344.94
2023-01-28T10:07:55.747Z,101352.00
2023-01-28T10:09:50.588Z,101353.84
2023-01-28T10:12:03.727Z,101344.13
2023-01-28T10:13:42.292Z,101356.44
2023-01-28T10:15:41.438Z,101354.72
2023-01-28T10:17:37.033Z,101369.72
2023-01-28T10:19:17.180Z,101360.06
2023-01-28T10:20:55.323Z,101361.84
2023-01-28T10:22:32.414Z,101363.63
2023-01-28T10:24:14.234Z,101367.19
2023-01-28T10:25:48.445Z,101364.53
2023-01-28T10:27:22.578Z,101363.69
2023-01-28T10:28:58.382Z,101367.19
2023-01-28T10:30:32.643Z,101377.78
2023-01-28T10:32:06.133Z,101372.50
2023-01-28T10:33:40.054Z,101372.50
2023-01-28T10:35:12.131Z,101370.75
2023-01-28T10:36:43.891Z,101370.75
2023-01-28T10:38:20.354Z,101378.72
2023-01-28T10:39:56.923Z,101366.38
2023-01-28T10:41:28.669Z,101377.84
2023-01-28T10:43:00.434Z,101384.97
2023-01-28T10:44:40.743Z,101379.72
2023-01-28T10:46:28.064Z,101387.72
2023-01-28T10:48:09.416Z,101381.59
2023-01-28T10:49:55.417Z,101377.25
2023-01-28T10:51:35.448Z,101384.31
2023-01-28T10:53:07.163Z,101379.88
2023-01-28T10:54:38.893Z,101379.94
2023-01-28T10:56:16.030Z,101390.56
2023-01-28T10:57:48.887Z,101382.66
2023-01-28T10:59:31.734Z,101387.97
2023-01-28T11:01:07.213Z,101387.13
2023-01-28T11:02:39.912Z,101388.00
2023-01-28T11:04:30.445Z,101388.06
2023-01-28T11:06:03.706Z,101383.63
2023-01-28T11:07:35.472Z,101384.50
2023-01-28T11:09:21.679Z,101379.22
2023-01-28T11:10:54.663Z,101376.56
2023-01-28T11:12:28.862Z,101381.88
2023-01-28T11:14:01.386Z,101385.41
2023-01-28T11:15:33.604Z,101385.41
2023-01-28T11:17:05.828Z,101378.41
2023-01-28T11:18:47.518Z,101379.31
2023-01-28T11:20:26.063Z,101375.75
2023-01-28T11:21:58.238Z,101380.13
2023-01-28T11:23:34.340Z,101381.88
2023-01-28T11:25:18.283Z,101381.88
2023-01-28T11:26:53.667Z,101387.13
2023-01-28T11:28:26.903Z,101371.22
2023-01-28T11:30:04.335Z,101379.16
2023-01-28T11:31:43.140Z,101370.34
2023-01-28T11:33:18.928Z,101375.59
2023-01-28T11:34:53.555Z,101366.69
2023-01-28T11:36:30.226Z,101367.59
2023-01-28T11:38:01.960Z,101364.03
2023-01-28T11:39:33.745Z,101364.91
2023-01-28T11:41:05.937Z,101356.06
2023-01-28T11:42:37.690Z,101350.78
2023-01-28T11:44:26.299Z,101354.31
2023-01-28T11:46:13.355Z,101360.44
2023-01-28T11:47:53.872Z,101355.97
2023-01-28T11:49:47.439Z,101354.22
2023-01-28T11:51:24.852Z,101354.16
2023-01-28T11:53:27.283Z,101347.16
2023-01-28T11:55:40.597Z,101355.13
2023-01-28T11:57:27.369Z,101358.56
2023-01-28T11:59:11.971Z,101349.75
2023-01-28T12:01:02.899Z,101351.53
2023-01-28T12:02:44.708Z,101354.13
2023-01-28T12:04:50.524Z,101349.75
2023-01-28T12:06:37.219Z,101349.72
2023-01-28T12:08:20.992Z,101350.56
2023-01-28T12:10:02.068Z,101342.59
2023-01-28T12:12:04.121Z,101345.25
2023-01-28T12:14:10.608Z,101346.97
2023-01-28T12:16:05.599Z,101339.91
2023-01-28T12:18:14.986Z,101342.59
2023-01-28T12:20:07.390Z,101349.63
2023-01-28T12:21:54.327Z,101339.91
2023-01-28T12:23:45.809Z,101342.53
2023-01-28T12:25:36.068Z,101334.59
2023-01-28T12:27:36.166Z,101332.81
2023-01-28T12:29:35.749Z,101334.59
2023-01-28T12:31:38.499Z,101331.84
2023-01-28T12:33:46.973Z,101334.53
2023-01-28T12:35:32.750Z,101335.38
2023-01-28T12:37:16.875Z,101325.63
2023-01-28T12:39:06.896Z,101319.41
2023-01-28T12:40:50.742Z,101325.59
2023-01-28T12:42:32.736Z,101322.88
2023-01-28T12:44:08.778Z,101320.13
2023-01-28T12:45:45.800Z,101325.41
2023-01-28T12:47:23.959Z,101316.59
2023-01-28T12:49:15.974Z,101320.13
2023-01-28T12:51:14.744Z,101313.06
2023-01-28T12:53:25.198Z,101317.47
2023-01-28T12:55:14.757Z,101312.97
2023-01-28T12:56:52.828Z,101318.25
2023-01-28T12:58:45.369Z,101320.03
2023-01-28T13:00:32.952Z,101324.38
2023-01-28T13:02:13.807Z,101323.50
2023-01-28T13:04:08.448Z,101316.44
2023-01-28T13:05:45.964Z,101323.44
2023-01-28T13:07:56.099Z,101315.50
2023-01-28T13:09:30.114Z,101321.66
2023-01-28T13:11:04.016Z,101319.00
2023-01-28T13:12:38.726Z,101325.13
2023-01-28T13:14:12.839Z,101326.09
2023-01-28T13:15:46.183Z,101324.31
2023-01-28T13:17:32.608Z,101314.69
2023-01-28T13:19:07.676Z,101318.19
2023-01-28T13:20:47.376Z,101324.44
2023-01-28T13:22:32.219Z,101329.72
2023-01-28T13:24:20.895Z,101323.56
2023-01-28T13:25:55.083Z,101320.88
2023-01-28T13:27:28.923Z,101313.81
2023-01-28T13:29:15.594Z,101323.56
2023-01-28T13:30:49.460Z,101329.72
2023-01-28T13:32:30.651Z,101323.56
2023-01-28T13:34:04.857Z,101325.34
2023-01-28T13:35:39.309Z,101335.94
2023-01-28T13:37:34.545Z,101332.38
2023-01-28T13:39:12.376Z,101321.84
2023-01-28T13:40:53.380Z,101332.38
2023-01-28T13:42:28.399Z,101329.78
2023-01-28T13:44:01.333Z,101329.72
2023-01-28T13:45:33.978Z,101330.59
2023-01-28T13:47:05.708Z,101328.00
2023-01-28T13:48:52.645Z,101327.09
2023-01-28T13:50:31.969Z,101330.59
2023-01-28T13:52:53.520Z,101338.59
2023-01-28T13:54:27.146Z,101341.13
2023-01-28T13:55:59.449Z,101339.41
2023-01-28T13:57:59.163Z,101342.16
2023-01-28T13:59:49.264Z,101347.47
2023-01-28T14:01:38.056Z,101349.25
2023-01-28T14:03:47.292Z,101352.88
2023-01-28T14:05:51.170Z,101355.56
2023-01-28T14:07:52.338Z,101360.97
2023-01-28T14:09:36.188Z,101358.31
2023-01-28T14:11:52.620Z,101362.81
2023-01-28T14:13:41.019Z,101365.56
2023-01-28T14:15:32.880Z,101363.78
2023-01-28T14:17:17.544Z,101371.78
2023-01-28T14:18:51.097Z,101367.34
2023-01-28T14:20:27.600Z,101371.84
2023-01-28T14:21:59.742Z,101372.72
2023-01-28T14:23:37.009Z,101370.06
2023-01-28T14:25:15.137Z,101370.06
2023-01-28T14:27:09.931Z,101369.25
2023-01-28T14:29:02.284Z,101371.03
2023-01-28T14:30:50.814Z,101354.28
2023-01-28T14:32:28.758Z,101358.66
2023-01-28T14:34:11.500Z,101359.56
2023-01-28T14:35:48.291Z,101360.44
2023-01-28T14:37:24.451Z,101373.69
2023-01-28T14:38:57.607Z,101373.69
2023-01-28T14:40:30.370Z,101365.78
2023-01-28T14:42:03.708Z,101351.66
2023-01-28T14:43:37.244Z,101355.19
2023-01-28T14:45:31.330Z,101355.25
2023-01-28T14:47:32.461Z,101352.59
2023-01-28T14:49:09.954Z,101361.34
2023-01-28T14:51:18.561Z,101356.09
2023-01-28T14:52:50.225Z,101349.91
2023-01-28T14:54:43.070Z,101344.66
2023-01-28T14:56:48.722Z,101351.72
2023-01-28T14:58:55.298Z,101363.19
2023-01-28T15:00:30.989Z,101349.03
2023-01-28T15:02:05.126Z,101354.31
2023-01-28T15:03:46.017Z,101343.78
2023-01-28T15:05:21.838Z,101349.03
2023-01-28T15:06:53.768Z,101352.53
2023-01-28T15:08:25.484Z,101347.25
2023-01-28T15:10:04.638Z,101350.75
2023-01-28T15:11:41.405Z,101351.63
2023-01-28T15:13:25.800Z,101350.72
2023-01-28T15:14:57.587Z,101359.47
2023-01-28T15:16:31.638Z,101361.25
2023-01-28T15:18:11.517Z,101354.19
2023-01-28T15:19:43.282Z,101345.34
2023-01-28T15:21:23.234Z,101350.66
2023-01-28T15:22:55.104Z,101340.94
2023-01-28T15:24:26.984Z,101355.91
2023-01-28T15:25:59.057Z,101349.75
2023-01-28T15:27:31.309Z,101342.69
2023-01-28T15:29:03.095Z,101348.00
2023-01-28T15:30:34.833Z,101344.44
2023-01-28T15:32:06.716Z,101346.19
2023-01-28T15:33:38.467Z,101348.00
2023-01-28T15:35:14.310Z,101353.25
2023-01-28T15:36:48.013Z,101344.44
2023-01-28T15:38:20.867Z,101334.75
2023-01-28T15:40:06.632Z,101338.34
2023-01-28T15:41:41.356Z,101328.59
2023-01-28T15:43:19.499Z,101328.66
2023-01-28T15:44:51.311Z,101324.28
2023-01-28T15:46:23.186Z,101321.63
2023-01-28T15:48:04.854Z,101326.97
2023-01-28T15:49:37.977Z,101327.91
2023-01-28T15:51:19.987Z,101331.38
2023-01-28T15:52:55.567Z,101328.75
2023-01-28T15:54:27.846Z,101331.41
2023-01-28T15:56:08.420Z,101327.97
2023-01-28T15:57:40.287Z,101334.13
2023-01-28T15:59:28.328Z,101313.03
2023-01-28T16:01:10.654Z,101317.47
2023-01-28T16:02:48.439Z,101315.75
2023-01-28T16:04:28.971Z,101314.88
2023-01-28T16:06:09.645Z,101322.00
2023-01-28T16:07:46.452Z,101323.78
2023-01-28T16:09:28.747Z,101324.69
2023-01-28T16:11:00.851Z,101320.25
2023-01-28T16:12:32.628Z,101316.75
2023-01-28T16:14:04.963Z,101309.72
2023-01-28T16:15:39.313Z,101321.19
2023-01-28T16:17:17.660Z,101320.38
2023-01-28T16:18:53.656Z,101330.94
2023-01-28T16:20:27.523Z,101328.31
2023-01-28T16:22:00.330Z,101330.94
2023-01-28T16:23:32.059Z,101335.38
2023-01-28T16:25:25.024Z,101346.84
2023-01-28T16:26:58.163Z,101338.03
2023-01-28T16:28:30.937Z,101343.38
2023-01-28T16:30:02.678Z,101341.59
2023-01-28T16:31:34.630Z,101343.41
2023-01-28T16:33:19.399Z,101350.50
2023-01-28T16:34:51.122Z,101348.69
2023-01-28T16:36:22.862Z,101347.81
2023-01-28T16:37:54.988Z,101354.00
2023-01-28T16:39:26.721Z,101347.84
2023-01-28T16:40:59.286Z,101350.50
2023-01-28T16:42:32.512Z,101349.63
2023-01-28T16:44:05.989Z,101348.75
2023-01-28T16:45:37.989Z,101344.34
2023-01-28T16:47:09.919Z,101336.41
2023-01-28T16:48:41.737Z,101329.38
2023-01-28T16:50:14.958Z,101332.91
2023-01-28T16:51:46.739Z,101329.38
2023-01-28T16:53:28.765Z,101338.22
2023-01-28T16:55:00.806Z,101335.56
2023-01-28T16:56:45.224Z,101344.38
2023-01-28T16:58:24.016Z,101349.66
2023-01-28T16:59:55.732Z,101346.16
2023-01-28T17:01:27.937Z,101337.31
2023-01-28T17:03:00.392Z,101340.88
2023-01-28T17:04:32.105Z,101350.53
2023-01-28T17:06:04.051Z,101357.59
2023-01-28T17:07:35.774Z,101357.59
2023-01-28T17:09:07.542Z,101357.59
2023-01-28T17:12:54.652Z,101365.59
2023-01-28T17:14:26.554Z,101370.88
2023-01-28T17:16:02.200Z,101369.16
2023-01-28T17:17:34.094Z,101362.94
2023-01-28T17:19:06.165Z,101370.06
2023-01-28T17:20:40.409Z,101375.34
2023-01-28T17:22:12.106Z,101380.63
2023-01-28T17:23:43.937Z,101379.78
2023-01-28T17:25:15.880Z,101381.50
2023-01-28T17:26:52.272Z,101385.06
2023-01-28T17:28:24.174Z,101382.41
2023-01-28T17:29:55.811Z,101389.44
2023-01-28T17:31:27.814Z,101393.88
2023-01-28T17:32:59.822Z,101392.09
2023-01-28T17:34:31.656Z,101400.03
2023-01-28T17:36:03.923Z,101396.53
2023-01-28T17:37:38.372Z,101400.03
2023-01-28T17:39:10.116Z,101398.28
2023-01-28T17:40:41.855Z,101396.53
2023-01-28T17:42:13.551Z,101397.38
2023-01-28T17:43:53.000Z,101396.56
2023-01-28T17:45:24.795Z,101401.81
2023-01-28T17:46:56.453Z,101409.75
2023-01-28T17:48:29.557Z,101407.09
2023-01-28T17:50:01.298Z,101399.16
2023-01-28T17:51:33.168Z,101408.88
2023-01-28T17:53:04.793Z,101401.84
2023-01-28T17:54:36.465Z,101398.28
2023-01-28T17:56:25.965Z,101400.06
2023-01-28T17:57:58.611Z,101394.75
2023-01-28T17:59:30.400Z,101393.88
2023-01-28T18:01:09.879Z,101398.28
2023-01-28T18:02:41.644Z,101400.94
2023-01-28T18:04:13.538Z,101403.59
2023-01-28T18:05:45.191Z,101403.59
2023-01-28T18:07:16.877Z,101403.59
2023-01-28T18:08:48.714Z,101398.28
2023-01-28T18:10:20.512Z,101396.56
2023-01-28T18:11:52.286Z,101391.25
2023-01-28T18:13:24.045Z,101391.25
2023-01-28T18:14:55.738Z,101393.03
2023-01-28T18:16:27.427Z,101389.50
2023-01-28T18:17:59.107Z,101399.16
2023-01-28T18:19:30.820Z,101394.78
2023-01-28T18:21:05.195Z,101393.06
2023-01-28T18:22:39.687Z,101393.91
2023-01-28T18:24:11.413Z,101399.25
2023-01-28T18:25:43.075Z,101398.34
2023-01-28T18:27:14.796Z,101412.47
2023-01-28T18:28:46.911Z,101406.28
2023-01-28T18:30:19.120Z,101411.59
2023-01-28T18:31:54.406Z,101416.84
2023-01-28T18:33:26.160Z,101413.34
2023-01-28T18:34:57.868Z,101405.41
2023-01-28T18:36:29.627Z,101408.91
2023-01-28T18:38:02.675Z,101404.53
2023-01-28T18:39:34.744Z,101414.22
2023-01-28T18:41:06.466Z,101417.75
2023-01-28T18:42:38.572Z,101416.03
2023-01-28T18:44:12.325Z,101433.63